sensor_id;sensor_type;location;lat;lon;timestamp;temperature;humidity
25871;DHT22;13689;48.590;7.752;2023-07-24T00:01:18;22.70;84.30
25871;DHT22;13689;48.590;7.752;2023-07-24T00:03:45;22.70;84.30
25871;DHT22;13689;48.590;7.752;2023-07-24T00:06:10;22.70;84.30
25871;DHT22;13689;48.590;7.752;2023-07-24T00:08:37;22.70;84.10
25871;DHT22;13689;48.590;7.752;2023-07-24T00:11:02;22.70;83.50
25871;DHT22;13689;48.590;7.752;2023-07-24T00:13:29;22.70;82.80
25871;DHT22;13689;48.590;7.752;2023-07-24T00:15:56;22.70;82.00
25871;DHT22;13689;48.590;7.752;2023-07-24T00:18:22;22.70;81.50
25871;DHT22;13689;48.590;7.752;2023-07-24T00:20:47;22.60;80.70
25871;DHT22;13689;48.590;7.752;2023-07-24T00:23:14;22.60;80.10
25871;DHT22;13689;48.590;7.752;2023-07-24T00:25:40;22.60;79.60
25871;DHT22;13689;48.590;7.752;2023-07-24T00:28:05;22.60;79.30
25871;DHT22;13689;48.590;7.752;2023-07-24T00:30:31;22.60;78.70
25871;DHT22;13689;48.590;7.752;2023-07-24T00:32:56;22.70;78.70
25871;DHT22;13689;48.590;7.752;2023-07-24T00:35:22;22.70;78.50
25871;DHT22;13689;48.590;7.752;2023-07-24T00:37:48;22.70;78.10
25871;DHT22;13689;48.590;7.752;2023-07-24T00:40:13;22.70;77.80
25871;DHT22;13689;48.590;7.752;2023-07-24T00:42:39;22.70;77.40
25871;DHT22;13689;48.590;7.752;2023-07-24T00:45:05;22.70;76.80
25871;DHT22;13689;48.590;7.752;2023-07-24T00:47:31;22.70;76.60
25871;DHT22;13689;48.590;7.752;2023-07-24T00:49:57;22.70;76.40
25871;DHT22;13689;48.590;7.752;2023-07-24T00:52:23;22.70;76.00
25871;DHT22;13689;48.590;7.752;2023-07-24T00:54:49;22.70;75.60
25871;DHT22;13689;48.590;7.752;2023-07-24T00:57:15;22.70;75.20
25871;DHT22;13689;48.590;7.752;2023-07-24T00:59:41;22.70;74.80
25871;DHT22;13689;48.590;7.752;2023-07-24T01:02:08;22.60;74.50
25871;DHT22;13689;48.590;7.752;2023-07-24T01:04:34;22.60;74.30
25871;DHT22;13689;48.590;7.752;2023-07-24T01:06:59;22.60;74.00
25871;DHT22;13689;48.590;7.752;2023-07-24T01:09:25;22.50;73.70
25871;DHT22;13689;48.590;7.752;2023-07-24T01:11:57;22.50;73.50
25871;DHT22;13689;48.590;7.752;2023-07-24T01:14:44;22.50;73.30
25871;DHT22;13689;48.590;7.752;2023-07-24T01:17:14;22.50;73.40
25871;DHT22;13689;48.590;7.752;2023-07-24T01:19:49;22.60;73.60
25871;DHT22;13689;48.590;7.752;2023-07-24T01:27:45;22.60;73.50
25871;DHT22;13689;48.590;7.752;2023-07-24T01:30:12;22.60;73.80
25871;DHT22;13689;48.590;7.752;2023-07-24T01:32:38;22.50;73.80
25871;DHT22;13689;48.590;7.752;2023-07-24T01:35:05;22.50;74.00
25871;DHT22;13689;48.590;7.752;2023-07-24T01:37:31;22.50;74.20
25871;DHT22;13689;48.590;7.752;2023-07-24T01:39:59;22.50;74.40
25871;DHT22;13689;48.590;7.752;2023-07-24T01:42:25;22.50;74.70
25871;DHT22;13689;48.590;7.752;2023-07-24T01:44:52;22.50;74.80
25871;DHT22;13689;48.590;7.752;2023-07-24T01:47:18;22.40;75.00
25871;DHT22;13689;48.590;7.752;2023-07-24T01:49:44;22.40;75.20
25871;DHT22;13689;48.590;7.752;2023-07-24T01:52:09;22.40;75.30
25871;DHT22;13689;48.590;7.752;2023-07-24T01:54:35;22.40;75.40
25871;DHT22;13689;48.590;7.752;2023-07-24T01:57:00;22.40;75.40
25871;DHT22;13689;48.590;7.752;2023-07-24T01:59:26;22.30;75.60
25871;DHT22;13689;48.590;7.752;2023-07-24T02:01:52;22.40;75.80
25871;DHT22;13689;48.590;7.752;2023-07-24T02:04:17;22.40;75.90
25871;DHT22;13689;48.590;7.752;2023-07-24T02:06:43;22.40;76.00
25871;DHT22;13689;48.590;7.752;2023-07-24T02:09:09;22.40;75.90
25871;DHT22;13689;48.590;7.752;2023-07-24T02:11:35;22.40;76.00
25871;DHT22;13689;48.590;7.752;2023-07-24T02:14:00;22.40;76.00
25871;DHT22;13689;48.590;7.752;2023-07-24T02:16:26;22.50;76.00
25871;DHT22;13689;48.590;7.752;2023-07-24T02:18:51;22.50;75.90
25871;DHT22;13689;48.590;7.752;2023-07-24T02:21:17;22.50;76.00
25871;DHT22;13689;48.590;7.752;2023-07-24T02:23:43;22.40;76.10
25871;DHT22;13689;48.590;7.752;2023-07-24T02:26:08;22.40;76.40
25871;DHT22;13689;48.590;7.752;2023-07-24T02:28:34;22.40;76.70
25871;DHT22;13689;48.590;7.752;2023-07-24T02:30:59;22.30;77.00
25871;DHT22;13689;48.590;7.752;2023-07-24T02:33:26;22.30;77.10
25871;DHT22;13689;48.590;7.752;2023-07-24T02:35:52;22.30;78.00
25871;DHT22;13689;48.590;7.752;2023-07-24T02:38:18;22.20;77.20
25871;DHT22;13689;48.590;7.752;2023-07-24T02:40:44;22.30;77.20
25871;DHT22;13689;48.590;7.752;2023-07-24T02:43:10;22.30;77.10
25871;DHT22;13689;48.590;7.752;2023-07-24T02:45:37;22.30;77.10
25871;DHT22;13689;48.590;7.752;2023-07-24T02:48:03;22.20;77.00
25871;DHT22;13689;48.590;7.752;2023-07-24T02:50:28;22.20;77.00
25871;DHT22;13689;48.590;7.752;2023-07-24T02:52:54;22.20;77.00
25871;DHT22;13689;48.590;7.752;2023-07-24T02:55:20;22.20;77.10
25871;DHT22;13689;48.590;7.752;2023-07-24T02:57:45;22.20;77.10
25871;DHT22;13689;48.590;7.752;2023-07-24T03:00:11;22.10;77.10
25871;DHT22;13689;48.590;7.752;2023-07-24T03:02:38;22.10;77.10
25871;DHT22;13689;48.590;7.752;2023-07-24T03:05:04;22.10;77.10
25871;DHT22;13689;48.590;7.752;2023-07-24T03:07:29;22.10;77.10
25871;DHT22;13689;48.590;7.752;2023-07-24T03:09:55;22.20;77.30
25871;DHT22;13689;48.590;7.752;2023-07-24T03:12:21;22.20;77.30
25871;DHT22;13689;48.590;7.752;2023-07-24T03:14:47;22.20;77.20
25871;DHT22;13689;48.590;7.752;2023-07-24T03:17:13;22.30;77.20
25871;DHT22;13689;48.590;7.752;2023-07-24T03:19:39;22.20;77.00
25871;DHT22;13689;48.590;7.752;2023-07-24T03:22:05;22.20;77.20
25871;DHT22;13689;48.590;7.752;2023-07-24T03:24:31;22.20;78.30
25871;DHT22;13689;48.590;7.752;2023-07-24T03:26:56;22.20;77.50
25871;DHT22;13689;48.590;7.752;2023-07-24T03:29:22;22.20;77.30
25871;DHT22;13689;48.590;7.752;2023-07-24T03:31:47;22.20;77.30
25871;DHT22;13689;48.590;7.752;2023-07-24T03:34:13;22.10;77.40
25871;DHT22;13689;48.590;7.752;2023-07-24T03:36:38;22.10;77.50
25871;DHT22;13689;48.590;7.752;2023-07-24T03:39:07;22.20;77.50
25871;DHT22;13689;48.590;7.752;2023-07-24T03:41:32;22.20;77.40
25871;DHT22;13689;48.590;7.752;2023-07-24T03:43:58;22.20;77.30
25871;DHT22;13689;48.590;7.752;2023-07-24T03:46:24;22.20;77.20
25871;DHT22;13689;48.590;7.752;2023-07-24T03:48:50;22.30;77.00
25871;DHT22;13689;48.590;7.752;2023-07-24T03:51:16;22.20;76.70
25871;DHT22;13689;48.590;7.752;2023-07-24T03:53:42;22.30;76.50
25871;DHT22;13689;48.590;7.752;2023-07-24T03:56:07;22.30;76.30
25871;DHT22;13689;48.590;7.752;2023-07-24T03:58:33;22.30;76.10
25871;DHT22;13689;48.590;7.752;2023-07-24T04:00:59;22.30;75.80
25871;DHT22;13689;48.590;7.752;2023-07-24T04:03:24;22.30;75.60
25871;DHT22;13689;48.590;7.752;2023-07-24T04:05:50;22.30;75.10
25871;DHT22;13689;48.590;7.752;2023-07-24T04:08:15;22.20;74.70
25871;DHT22;13689;48.590;7.752;2023-07-24T04:10:41;22.20;74.50
25871;DHT22;13689;48.590;7.752;2023-07-24T04:13:06;22.20;74.00
25871;DHT22;13689;48.590;7.752;2023-07-24T04:15:32;22.20;73.70
25871;DHT22;13689;48.590;7.752;2023-07-24T04:17:58;22.20;73.50
25871;DHT22;13689;48.590;7.752;2023-07-24T04:20:23;22.30;73.30
25871;DHT22;13689;48.590;7.752;2023-07-24T04:22:49;22.20;73.00
25871;DHT22;13689;48.590;7.752;2023-07-24T04:25:14;22.20;72.80
25871;DHT22;13689;48.590;7.752;2023-07-24T04:27:42;22.20;72.50
25871;DHT22;13689;48.590;7.752;2023-07-24T04:30:08;22.20;72.20
25871;DHT22;13689;48.590;7.752;2023-07-24T04:32:33;22.20;72.00
25871;DHT22;13689;48.590;7.752;2023-07-24T04:34:59;22.20;72.10
25871;DHT22;13689;48.590;7.752;2023-07-24T04:37:24;22.20;71.90
25871;DHT22;13689;48.590;7.752;2023-07-24T04:39:50;22.20;71.70
25871;DHT22;13689;48.590;7.752;2023-07-24T04:42:15;22.20;71.60
25871;DHT22;13689;48.590;7.752;2023-07-24T04:44:41;22.10;71.50
25871;DHT22;13689;48.590;7.752;2023-07-24T04:47:07;22.10;71.70
25871;DHT22;13689;48.590;7.752;2023-07-24T04:49:32;22.10;71.60
25871;DHT22;13689;48.590;7.752;2023-07-24T04:51:59;22.10;71.70
25871;DHT22;13689;48.590;7.752;2023-07-24T04:54:25;22.00;71.90
25871;DHT22;13689;48.590;7.752;2023-07-24T04:56:50;22.00;72.10
25871;DHT22;13689;48.590;7.752;2023-07-24T04:59:16;22.00;72.20
25871;DHT22;13689;48.590;7.752;2023-07-24T05:01:42;21.90;72.20
25871;DHT22;13689;48.590;7.752;2023-07-24T05:04:08;21.90;72.60
25871;DHT22;13689;48.590;7.752;2023-07-24T05:06:33;21.90;72.60
25871;DHT22;13689;48.590;7.752;2023-07-24T05:09:01;21.90;72.50
25871;DHT22;13689;48.590;7.752;2023-07-24T05:11:26;21.90;72.30
25871;DHT22;13689;48.590;7.752;2023-07-24T05:13:52;21.90;72.00
25871;DHT22;13689;48.590;7.752;2023-07-24T05:16:17;21.80;71.80
25871;DHT22;13689;48.590;7.752;2023-07-24T05:18:43;21.80;71.80
25871;DHT22;13689;48.590;7.752;2023-07-24T05:21:09;22.00;71.70
25871;DHT22;13689;48.590;7.752;2023-07-24T05:23:34;21.90;71.30
25871;DHT22;13689;48.590;7.752;2023-07-24T05:26:01;22.00;71.10
25871;DHT22;13689;48.590;7.752;2023-07-24T05:28:27;22.00;70.70
25871;DHT22;13689;48.590;7.752;2023-07-24T05:30:53;22.00;70.30
25871;DHT22;13689;48.590;7.752;2023-07-24T05:33:19;21.90;70.40
25871;DHT22;13689;48.590;7.752;2023-07-24T05:35:45;21.90;70.20
25871;DHT22;13689;48.590;7.752;2023-07-24T05:38:10;22.00;70.10
25871;DHT22;13689;48.590;7.752;2023-07-24T05:40:36;22.00;70.00
25871;DHT22;13689;48.590;7.752;2023-07-24T05:43:01;22.00;69.60
25871;DHT22;13689;48.590;7.752;2023-07-24T05:45:27;22.00;69.20
25871;DHT22;13689;48.590;7.752;2023-07-24T05:47:53;22.00;69.10
25871;DHT22;13689;48.590;7.752;2023-07-24T05:50:19;22.00;68.90
25871;DHT22;13689;48.590;7.752;2023-07-24T05:52:45;22.10;68.90
25871;DHT22;13689;48.590;7.752;2023-07-24T05:55:10;22.10;68.60
25871;DHT22;13689;48.590;7.752;2023-07-24T05:57:36;22.00;68.30
25871;DHT22;13689;48.590;7.752;2023-07-24T06:00:04;22.10;68.30
25871;DHT22;13689;48.590;7.752;2023-07-24T06:02:29;22.00;68.30
25871;DHT22;13689;48.590;7.752;2023-07-24T06:04:55;22.10;68.20
25871;DHT22;13689;48.590;7.752;2023-07-24T06:07:21;22.20;68.10
25871;DHT22;13689;48.590;7.752;2023-07-24T06:09:46;22.20;68.00
25871;DHT22;13689;48.590;7.752;2023-07-24T06:12:12;22.30;67.80
25871;DHT22;13689;48.590;7.752;2023-07-24T06:14:37;22.30;67.70
25871;DHT22;13689;48.590;7.752;2023-07-24T06:17:03;22.40;67.60
25871;DHT22;13689;48.590;7.752;2023-07-24T06:19:29;22.50;67.50
25871;DHT22;13689;48.590;7.752;2023-07-24T06:21:54;22.40;67.20
25871;DHT22;13689;48.590;7.752;2023-07-24T06:24:20;22.40;67.40
25871;DHT22;13689;48.590;7.752;2023-07-24T06:26:46;22.40;67.30
25871;DHT22;13689;48.590;7.752;2023-07-24T06:29:11;22.40;67.50
25871;DHT22;13689;48.590;7.752;2023-07-24T06:31:37;22.30;67.50
25871;DHT22;13689;48.590;7.752;2023-07-24T06:34:03;22.30;67.70
25871;DHT22;13689;48.590;7.752;2023-07-24T06:36:28;22.20;67.90
25871;DHT22;13689;48.590;7.752;2023-07-24T06:38:54;22.20;68.00
25871;DHT22;13689;48.590;7.752;2023-07-24T06:41:19;22.20;68.30
25871;DHT22;13689;48.590;7.752;2023-07-24T06:43:46;22.10;68.50
25871;DHT22;13689;48.590;7.752;2023-07-24T06:46:12;22.10;68.70
25871;DHT22;13689;48.590;7.752;2023-07-24T06:48:38;22.10;68.90
25871;DHT22;13689;48.590;7.752;2023-07-24T06:51:03;22.10;69.20
25871;DHT22;13689;48.590;7.752;2023-07-24T06:53:29;22.10;69.70
25871;DHT22;13689;48.590;7.752;2023-07-24T06:55:54;22.00;70.30
25871;DHT22;13689;48.590;7.752;2023-07-24T06:58:20;21.90;71.50
25871;DHT22;13689;48.590;7.752;2023-07-24T07:00:45;21.70;72.70
25871;DHT22;13689;48.590;7.752;2023-07-24T07:03:11;21.50;74.30
25871;DHT22;13689;48.590;7.752;2023-07-24T07:05:37;21.30;75.80
25871;DHT22;13689;48.590;7.752;2023-07-24T07:08:03;21.20;77.00
25871;DHT22;13689;48.590;7.752;2023-07-24T07:10:30;21.10;78.20
25871;DHT22;13689;48.590;7.752;2023-07-24T07:12:56;21.10;79.10
25871;DHT22;13689;48.590;7.752;2023-07-24T07:15:22;21.00;79.90
25871;DHT22;13689;48.590;7.752;2023-07-24T07:17:47;21.00;80.40
25871;DHT22;13689;48.590;7.752;2023-07-24T07:20:13;21.00;81.20
25871;DHT22;13689;48.590;7.752;2023-07-24T07:22:38;21.00;81.90
25871;DHT22;13689;48.590;7.752;2023-07-24T07:25:04;21.10;82.50
25871;DHT22;13689;48.590;7.752;2023-07-24T07:27:30;21.10;82.80
25871;DHT22;13689;48.590;7.752;2023-07-24T07:29:55;21.20;83.00
25871;DHT22;13689;48.590;7.752;2023-07-24T07:32:21;21.20;83.30
25871;DHT22;13689;48.590;7.752;2023-07-24T07:34:46;21.20;83.50
25871;DHT22;13689;48.590;7.752;2023-07-24T07:37:12;21.30;84.10
25871;DHT22;13689;48.590;7.752;2023-07-24T07:39:37;21.40;84.30
25871;DHT22;13689;48.590;7.752;2023-07-24T07:42:03;21.40;84.40
25871;DHT22;13689;48.590;7.752;2023-07-24T07:44:29;21.50;84.80
25871;DHT22;13689;48.590;7.752;2023-07-24T07:46:54;21.60;85.00
25871;DHT22;13689;48.590;7.752;2023-07-24T07:49:20;21.60;85.20
25871;DHT22;13689;48.590;7.752;2023-07-24T07:51:45;21.60;85.20
25871;DHT22;13689;48.590;7.752;2023-07-24T07:54:11;21.70;85.60
25871;DHT22;13689;48.590;7.752;2023-07-24T07:56:37;21.70;85.50
25871;DHT22;13689;48.590;7.752;2023-07-24T07:59:02;21.80;85.90
25871;DHT22;13689;48.590;7.752;2023-07-24T08:01:28;21.90;86.00
25871;DHT22;13689;48.590;7.752;2023-07-24T08:03:53;22.00;86.30
25871;DHT22;13689;48.590;7.752;2023-07-24T08:06:19;22.10;86.30
25871;DHT22;13689;48.590;7.752;2023-07-24T08:08:46;22.20;86.60
25871;DHT22;13689;48.590;7.752;2023-07-24T08:11:12;22.30;86.70
25871;DHT22;13689;48.590;7.752;2023-07-24T08:13:37;22.40;86.60
25871;DHT22;13689;48.590;7.752;2023-07-24T08:16:03;22.50;86.10
25871;DHT22;13689;48.590;7.752;2023-07-24T08:18:30;22.50;86.00
25871;DHT22;13689;48.590;7.752;2023-07-24T08:20:55;22.70;86.50
25871;DHT22;13689;48.590;7.752;2023-07-24T08:23:21;22.80;86.50
25871;DHT22;13689;48.590;7.752;2023-07-24T08:25:53;22.90;86.10
25871;DHT22;13689;48.590;7.752;2023-07-24T08:28:19;22.90;86.70
25871;DHT22;13689;48.590;7.752;2023-07-24T08:30:45;22.90;85.90
25871;DHT22;13689;48.590;7.752;2023-07-24T08:33:12;22.90;86.00
25871;DHT22;13689;48.590;7.752;2023-07-24T08:35:38;23.00;86.20
25871;DHT22;13689;48.590;7.752;2023-07-24T08:38:04;23.10;85.60
25871;DHT22;13689;48.590;7.752;2023-07-24T08:40:29;23.00;85.70
25871;DHT22;13689;48.590;7.752;2023-07-24T08:42:56;23.00;85.60
25871;DHT22;13689;48.590;7.752;2023-07-24T08:45:23;23.00;85.40
25871;DHT22;13689;48.590;7.752;2023-07-24T08:47:50;23.10;84.80
25871;DHT22;13689;48.590;7.752;2023-07-24T08:50:16;23.10;84.20
25871;DHT22;13689;48.590;7.752;2023-07-24T08:52:43;23.10;83.70
25871;DHT22;13689;48.590;7.752;2023-07-24T08:55:10;23.10;83.20
25871;DHT22;13689;48.590;7.752;2023-07-24T08:57:36;23.10;82.80
25871;DHT22;13689;48.590;7.752;2023-07-24T09:00:05;23.00;82.50
25871;DHT22;13689;48.590;7.752;2023-07-24T09:02:32;22.90;82.30
25871;DHT22;13689;48.590;7.752;2023-07-24T09:04:58;22.80;81.90
25871;DHT22;13689;48.590;7.752;2023-07-24T09:07:24;22.70;82.00
25871;DHT22;13689;48.590;7.752;2023-07-24T09:09:49;22.70;82.00
25871;DHT22;13689;48.590;7.752;2023-07-24T09:12:16;22.70;81.70
25871;DHT22;13689;48.590;7.752;2023-07-24T09:14:41;22.70;81.60
25871;DHT22;13689;48.590;7.752;2023-07-24T09:17:09;22.60;81.40
25871;DHT22;13689;48.590;7.752;2023-07-24T09:19:35;22.50;81.30
25871;DHT22;13689;48.590;7.752;2023-07-24T09:22:14;22.50;81.30
25871;DHT22;13689;48.590;7.752;2023-07-24T09:24:54;22.40;81.40
25871;DHT22;13689;48.590;7.752;2023-07-24T09:27:20;22.40;81.30
25871;DHT22;13689;48.590;7.752;2023-07-24T09:29:46;22.40;81.20
25871;DHT22;13689;48.590;7.752;2023-07-24T09:32:23;22.30;81.10
25871;DHT22;13689;48.590;7.752;2023-07-24T09:34:49;22.30;81.20
25871;DHT22;13689;48.590;7.752;2023-07-24T09:37:30;22.30;81.40
25871;DHT22;13689;48.590;7.752;2023-07-24T09:39:55;22.20;81.30
25871;DHT22;13689;48.590;7.752;2023-07-24T09:42:31;22.10;81.60
25871;DHT22;13689;48.590;7.752;2023-07-24T09:44:57;22.00;82.00
25871;DHT22;13689;48.590;7.752;2023-07-24T09:47:23;22.00;82.40
25871;DHT22;13689;48.590;7.752;2023-07-24T09:49:48;21.90;82.80
25871;DHT22;13689;48.590;7.752;2023-07-24T09:52:17;21.90;83.30
25871;DHT22;13689;48.590;7.752;2023-07-24T09:54:55;21.80;83.90
25871;DHT22;13689;48.590;7.752;2023-07-24T09:57:26;21.80;84.40
25871;DHT22;13689;48.590;7.752;2023-07-24T09:59:52;21.70;85.00
25871;DHT22;13689;48.590;7.752;2023-07-24T10:02:19;21.60;85.30
25871;DHT22;13689;48.590;7.752;2023-07-24T10:04:45;21.50;86.20
25871;DHT22;13689;48.590;7.752;2023-07-24T10:07:11;21.40;87.40
25871;DHT22;13689;48.590;7.752;2023-07-24T10:09:38;21.40;88.80
25871;DHT22;13689;48.590;7.752;2023-07-24T10:12:05;21.30;88.80
25871;DHT22;13689;48.590;7.752;2023-07-24T10:14:30;21.20;89.70
25871;DHT22;13689;48.590;7.752;2023-07-24T10:16:57;21.10;90.40
25871;DHT22;13689;48.590;7.752;2023-07-24T10:19:22;21.00;90.30
25871;DHT22;13689;48.590;7.752;2023-07-24T10:21:49;21.00;90.90
25871;DHT22;13689;48.590;7.752;2023-07-24T10:24:16;21.00;91.30
25871;DHT22;13689;48.590;7.752;2023-07-24T10:26:41;21.00;91.80
25871;DHT22;13689;48.590;7.752;2023-07-24T10:29:09;21.10;92.10
25871;DHT22;13689;48.590;7.752;2023-07-24T10:31:34;21.10;92.30
25871;DHT22;13689;48.590;7.752;2023-07-24T10:34:05;21.10;92.70
25871;DHT22;13689;48.590;7.752;2023-07-24T10:36:34;21.10;93.20
25871;DHT22;13689;48.590;7.752;2023-07-24T10:38:59;21.10;92.50
25871;DHT22;13689;48.590;7.752;2023-07-24T10:41:36;21.10;93.00
25871;DHT22;13689;48.590;7.752;2023-07-24T10:44:03;21.10;93.60
25871;DHT22;13689;48.590;7.752;2023-07-24T10:46:39;21.10;93.70
25871;DHT22;13689;48.590;7.752;2023-07-24T10:49:08;21.10;93.90
25871;DHT22;13689;48.590;7.752;2023-07-24T10:51:34;21.10;94.10
25871;DHT22;13689;48.590;7.752;2023-07-24T10:54:03;21.20;93.80
25871;DHT22;13689;48.590;7.752;2023-07-24T10:56:29;21.30;94.40
25871;DHT22;13689;48.590;7.752;2023-07-24T10:58:54;21.30;94.30
25871;DHT22;13689;48.590;7.752;2023-07-24T11:01:20;21.50;94.20
25871;DHT22;13689;48.590;7.752;2023-07-24T11:03:46;21.60;94.00
25871;DHT22;13689;48.590;7.752;2023-07-24T11:06:16;21.70;94.10
25871;DHT22;13689;48.590;7.752;2023-07-24T11:08:42;21.90;94.00
25871;DHT22;13689;48.590;7.752;2023-07-24T11:11:15;22.00;93.60
25871;DHT22;13689;48.590;7.752;2023-07-24T11:13:41;21.90;93.10
25871;DHT22;13689;48.590;7.752;2023-07-24T11:16:08;21.90;93.40
25871;DHT22;13689;48.590;7.752;2023-07-24T11:18:47;21.80;93.30
25871;DHT22;13689;48.590;7.752;2023-07-24T11:21:13;21.80;92.50
25871;DHT22;13689;48.590;7.752;2023-07-24T11:23:50;21.60;92.90
25871;DHT22;13689;48.590;7.752;2023-07-24T11:26:18;21.50;93.30
25871;DHT22;13689;48.590;7.752;2023-07-24T11:28:44;21.50;93.60
25871;DHT22;13689;48.590;7.752;2023-07-24T11:31:10;21.50;93.80
25871;DHT22;13689;48.590;7.752;2023-07-24T11:33:37;21.50;94.40
25871;DHT22;13689;48.590;7.752;2023-07-24T11:36:03;21.50;94.10
25871;DHT22;13689;48.590;7.752;2023-07-24T11:38:29;21.50;94.10
25871;DHT22;13689;48.590;7.752;2023-07-24T11:40:55;21.50;94.10
25871;DHT22;13689;48.590;7.752;2023-07-24T11:43:23;21.40;93.70
25871;DHT22;13689;48.590;7.752;2023-07-24T11:45:51;21.40;94.50
25871;DHT22;13689;48.590;7.752;2023-07-24T11:48:18;21.40;94.40
25871;DHT22;13689;48.590;7.752;2023-07-24T11:50:48;21.30;94.40
25871;DHT22;13689;48.590;7.752;2023-07-24T11:53:27;21.30;94.20
25871;DHT22;13689;48.590;7.752;2023-07-24T11:55:55;21.20;93.90
25871;DHT22;13689;48.590;7.752;2023-07-24T11:58:21;21.20;94.30
25871;DHT22;13689;48.590;7.752;2023-07-24T12:00:48;21.20;94.90
25871;DHT22;13689;48.590;7.752;2023-07-24T12:03:34;21.30;94.30
25871;DHT22;13689;48.590;7.752;2023-07-24T12:06:00;21.40;94.40
25871;DHT22;13689;48.590;7.752;2023-07-24T12:08:35;21.50;94.10
25871;DHT22;13689;48.590;7.752;2023-07-24T12:11:01;21.60;93.90
25871;DHT22;13689;48.590;7.752;2023-07-24T12:13:27;21.60;93.70
25871;DHT22;13689;48.590;7.752;2023-07-24T12:15:54;21.60;93.80
25871;DHT22;13689;48.590;7.752;2023-07-24T12:18:20;21.60;93.50
25871;DHT22;13689;48.590;7.752;2023-07-24T12:20:45;21.50;93.50
25871;DHT22;13689;48.590;7.752;2023-07-24T12:23:12;21.60;93.40
25871;DHT22;13689;48.590;7.752;2023-07-24T12:25:38;21.60;93.70
25871;DHT22;13689;48.590;7.752;2023-07-24T12:28:03;21.70;93.30
25871;DHT22;13689;48.590;7.752;2023-07-24T12:30:29;21.80;93.00
25871;DHT22;13689;48.590;7.752;2023-07-24T12:32:55;21.80;92.80
25871;DHT22;13689;48.590;7.752;2023-07-24T12:35:20;21.80;92.80
25871;DHT22;13689;48.590;7.752;2023-07-24T12:37:46;21.80;92.70
25871;DHT22;13689;48.590;7.752;2023-07-24T12:40:12;21.80;92.70
25871;DHT22;13689;48.590;7.752;2023-07-24T12:42:38;21.90;92.90
25871;DHT22;13689;48.590;7.752;2023-07-24T12:45:04;22.00;92.90
25871;DHT22;13689;48.590;7.752;2023-07-24T12:47:31;22.10;92.80
25871;DHT22;13689;48.590;7.752;2023-07-24T12:49:57;22.30;92.60
25871;DHT22;13689;48.590;7.752;2023-07-24T12:52:24;22.50;92.50
25871;DHT22;13689;48.590;7.752;2023-07-24T12:54:50;22.70;92.40
25871;DHT22;13689;48.590;7.752;2023-07-24T12:57:16;22.80;91.70
25871;DHT22;13689;48.590;7.752;2023-07-24T12:59:41;23.00;91.70
25871;DHT22;13689;48.590;7.752;2023-07-24T13:02:07;23.20;91.20
25871;DHT22;13689;48.590;7.752;2023-07-24T13:04:32;23.30;90.80
25871;DHT22;13689;48.590;7.752;2023-07-24T13:06:58;23.50;90.90
25871;DHT22;13689;48.590;7.752;2023-07-24T13:09:25;23.60;90.40
25871;DHT22;13689;48.590;7.752;2023-07-24T13:11:51;23.60;90.10
25871;DHT22;13689;48.590;7.752;2023-07-24T13:14:19;23.70;89.50
25871;DHT22;13689;48.590;7.752;2023-07-24T13:16:45;23.60;88.50
25871;DHT22;13689;48.590;7.752;2023-07-24T13:19:11;23.70;88.00
25871;DHT22;13689;48.590;7.752;2023-07-24T13:21:36;23.70;87.10
25871;DHT22;13689;48.590;7.752;2023-07-24T13:24:02;23.60;86.20
25871;DHT22;13689;48.590;7.752;2023-07-24T13:26:28;23.60;85.50
25871;DHT22;13689;48.590;7.752;2023-07-24T13:28:53;23.50;85.10
25871;DHT22;13689;48.590;7.752;2023-07-24T13:31:20;23.40;85.20
25871;DHT22;13689;48.590;7.752;2023-07-24T13:33:46;23.40;85.10
25871;DHT22;13689;48.590;7.752;2023-07-24T13:36:12;23.40;84.70
25871;DHT22;13689;48.590;7.752;2023-07-24T13:38:37;23.50;84.40
25871;DHT22;13689;48.590;7.752;2023-07-24T13:41:04;23.50;84.10
25871;DHT22;13689;48.590;7.752;2023-07-24T13:43:30;23.50;83.70
25871;DHT22;13689;48.590;7.752;2023-07-24T13:45:56;23.50;83.50
25871;DHT22;13689;48.590;7.752;2023-07-24T13:48:22;23.50;83.30
25871;DHT22;13689;48.590;7.752;2023-07-24T13:50:48;23.50;82.80
25871;DHT22;13689;48.590;7.752;2023-07-24T13:53:14;23.50;81.90
25871;DHT22;13689;48.590;7.752;2023-07-24T13:55:39;23.50;81.70
25871;DHT22;13689;48.590;7.752;2023-07-24T13:58:05;23.60;81.30
25871;DHT22;13689;48.590;7.752;2023-07-24T14:00:31;23.60;80.80
25871;DHT22;13689;48.590;7.752;2023-07-24T14:02:56;23.70;80.10
25871;DHT22;13689;48.590;7.752;2023-07-24T14:05:22;23.70;79.50
25871;DHT22;13689;48.590;7.752;2023-07-24T14:07:47;23.60;78.80
25871;DHT22;13689;48.590;7.752;2023-07-24T14:10:13;23.60;78.60
25871;DHT22;13689;48.590;7.752;2023-07-24T14:12:39;23.60;78.40
25871;DHT22;13689;48.590;7.752;2023-07-24T14:15:05;23.60;78.10
25871;DHT22;13689;48.590;7.752;2023-07-24T14:17:30;23.60;78.00
25871;DHT22;13689;48.590;7.752;2023-07-24T14:19:56;23.60;77.80
25871;DHT22;13689;48.590;7.752;2023-07-24T14:22:21;23.60;77.60
25871;DHT22;13689;48.590;7.752;2023-07-24T14:24:47;23.60;78.20
25871;DHT22;13689;48.590;7.752;2023-07-24T14:27:16;23.60;77.10
25871;DHT22;13689;48.590;7.752;2023-07-24T14:29:41;23.70;76.90
25871;DHT22;13689;48.590;7.752;2023-07-24T14:32:07;23.60;76.50
25871;DHT22;13689;48.590;7.752;2023-07-24T14:34:33;23.60;76.30
25871;DHT22;13689;48.590;7.752;2023-07-24T14:36:59;23.50;76.00
25871;DHT22;13689;48.590;7.752;2023-07-24T14:39:24;23.50;76.00
25871;DHT22;13689;48.590;7.752;2023-07-24T14:41:51;23.50;76.00
25871;DHT22;13689;48.590;7.752;2023-07-24T14:44:16;23.50;75.90
25871;DHT22;13689;48.590;7.752;2023-07-24T14:46:42;23.50;75.80
25871;DHT22;13689;48.590;7.752;2023-07-24T14:49:07;23.50;75.90
25871;DHT22;13689;48.590;7.752;2023-07-24T14:51:33;23.40;76.70
25871;DHT22;13689;48.590;7.752;2023-07-24T14:54:00;23.40;76.00
25871;DHT22;13689;48.590;7.752;2023-07-24T14:56:26;23.40;75.90
25871;DHT22;13689;48.590;7.752;2023-07-24T14:58:51;23.30;76.00
25871;DHT22;13689;48.590;7.752;2023-07-24T15:01:18;23.30;76.10
25871;DHT22;13689;48.590;7.752;2023-07-24T15:03:44;23.30;76.10
25871;DHT22;13689;48.590;7.752;2023-07-24T15:06:09;23.10;75.80
25871;DHT22;13689;48.590;7.752;2023-07-24T15:08:35;23.00;75.90
25871;DHT22;13689;48.590;7.752;2023-07-24T15:11:01;22.80;76.40
25871;DHT22;13689;48.590;7.752;2023-07-24T15:13:26;22.70;77.00
25871;DHT22;13689;48.590;7.752;2023-07-24T15:15:52;22.60;77.70
25871;DHT22;13689;48.590;7.752;2023-07-24T15:18:17;22.50;78.30
25871;DHT22;13689;48.590;7.752;2023-07-24T15:20:43;22.40;79.10
25871;DHT22;13689;48.590;7.752;2023-07-24T15:23:09;22.00;80.70
25871;DHT22;13689;48.590;7.752;2023-07-24T15:25:35;21.60;83.00
25871;DHT22;13689;48.590;7.752;2023-07-24T15:28:00;21.40;85.60
25871;DHT22;13689;48.590;7.752;2023-07-24T15:30:26;21.40;87.20